• Join FlightAware (Why Join?)
  • Login
  • US Flag 
12:16AM EDT


 

Airport Tracker/Info


-or-


 

Live Flight TrackerFlight Track Log ✈ UPS1121 ✈ 07-Jun-2013 ✈ KALB - KBDL

Flight Track Log - Related Links

Times and Time Zones

All times are in EDT time to prevent confusion due to time zone crossing. See the UPS1121 flight status page for this flight to view local times or setup timezone preferences in your user account.

Time Position Orientation Groundspeed Altitude Reporting Facility
EDT Latitude Longitude Course Direction KTS MPH feet Rate Location/Type
09:52PM 42.7278 -73.8081 134° Southeast 159 183 1,500  Level Boston Center
09:53PM 42.6889 -73.7536 134° Southeast 213 245 3,900 2,580 Climbing Boston Center
09:54PM 42.6417 -73.6764 130° Southeast 234 269 7,100 3,120 Climbing Boston Center
09:55PM 42.5925 -73.5964 130° Southeast 259 298 10,300 1,920 Climbing Boston Center
09:56PM 42.5350 -73.5136 133° Southeast 293 337 11,000 300 Climbing Boston Center
09:57PM 42.4775 -73.4311 133° Southeast 293 337 11,000  Level Boston Center
09:58PM 42.4383 -73.3714 132° Southeast 341 392 11,000  Level Boston Center
09:58PM 42.4114 -73.3344 135° Southeast 325 374 11,000  Level Boston Center
09:59PM 42.3703 -73.2803 136° Southeast 348 400 11,000  Level Boston Center
09:59PM 42.3433 -73.2406 133° Southeast 342 394 11,000  Level Boston Center
10:00PM 42.3042 -73.1867 134° Southeast 334 384 11,000  Level Boston Center
10:00PM 42.2856 -73.1558 129° Southeast 321 369 11,000 -720 Level Boston Center
10:01PM 42.2397 -73.1467 172° South 280 322 10,300 -1,860 Descending Boston Center
10:02PM 42.1667 -73.1572 186° South 269 310 8,000 -2,400 Descending Boston Center
10:03PM 42.1003 -73.1394 169° South 269 310 5,800 -1,560 Descending Boston Center
10:04PM 42.0294 -73.1053 160° South 268 308 5,000 -720 Descending Boston Center
10:05PM 41.9653 -73.0489 147° Southeast 256 295 4,400 -540 Descending Boston Center
10:06PM 41.9239 -72.9953 136° Southeast 214 246 4,000 -420 Descending Boston Center
10:07PM 41.8825 -72.9475 139° Southeast 193 222 3,600 -540 Descending Boston Center
10:08PM 41.8450 -72.9056 140° Southeast 176 203 3,000 -300 Descending Boston Center
10:09PM 41.8181 -72.8636 131° Southeast 154 177 3,000 -300 Level Boston Center
10:10PM 41.8369 -72.8247 57° Northeast 139 160 2,500 -480 Descending Boston Center
10:11PM 41.8642 -72.7886 45° Northeast 138 159 2,100 -600 Descending Boston Center
10:12PM 41.8914 -72.7525 45° Northeast 133 153 1,400 -720 Descending Boston Center